sensor_id;sensor_type;location;lat;lon;timestamp;P1;durP1;ratioP1;P2;durP2;ratioP2
28822;SDS011;15961;54.678;9.110;2023-06-26T00:00:11;10.18;;;5.20;;
28822;SDS011;15961;54.678;9.110;2023-06-26T00:02:36;6.93;;;4.85;;
28822;SDS011;15961;54.678;9.110;2023-06-26T00:05:02;10.68;;;5.57;;
28822;SDS011;15961;54.678;9.110;2023-06-26T00:07:28;9.32;;;4.85;;
28822;SDS011;15961;54.678;9.110;2023-06-26T00:09:54;8.77;;;4.47;;
28822;SDS011;15961;54.678;9.110;2023-06-26T00:12:20;8.52;;;5.25;;
28822;SDS011;15961;54.678;9.110;2023-06-26T00:14:45;7.95;;;4.82;;
28822;SDS011;15961;54.678;9.110;2023-06-26T00:17:11;9.40;;;5.82;;
28822;SDS011;15961;54.678;9.110;2023-06-26T00:19:36;8.55;;;4.95;;
28822;SDS011;15961;54.678;9.110;2023-06-26T00:22:02;8.40;;;5.90;;
28822;SDS011;15961;54.678;9.110;2023-06-26T00:24:27;7.47;;;5.03;;
28822;SDS011;15961;54.678;9.110;2023-06-26T00:26:52;9.52;;;5.72;;
28822;SDS011;15961;54.678;9.110;2023-06-26T00:29:18;7.78;;;4.45;;
28822;SDS011;15961;54.678;9.110;2023-06-26T00:31:43;12.10;;;5.55;;
28822;SDS011;15961;54.678;9.110;2023-06-26T00:34:09;10.52;;;6.18;;
28822;SDS011;15961;54.678;9.110;2023-06-26T00:36:34;8.88;;;5.28;;
28822;SDS011;15961;54.678;9.110;2023-06-26T00:38:59;8.07;;;5.07;;
28822;SDS011;15961;54.678;9.110;2023-06-26T00:41:25;9.30;;;6.32;;
28822;SDS011;15961;54.678;9.110;2023-06-26T00:43:50;9.98;;;5.85;;
28822;SDS011;15961;54.678;9.110;2023-06-26T00:46:16;8.60;;;5.25;;
28822;SDS011;15961;54.678;9.110;2023-06-26T00:48:42;9.88;;;5.75;;
28822;SDS011;15961;54.678;9.110;2023-06-26T00:51:08;9.85;;;5.68;;
28822;SDS011;15961;54.678;9.110;2023-06-26T00:53:33;9.80;;;6.07;;
28822;SDS011;15961;54.678;9.110;2023-06-26T00:55:59;9.05;;;5.45;;
28822;SDS011;15961;54.678;9.110;2023-06-26T00:58:25;7.50;;;4.82;;
28822;SDS011;15961;54.678;9.110;2023-06-26T01:00:51;9.52;;;4.93;;
28822;SDS011;15961;54.678;9.110;2023-06-26T01:03:17;7.55;;;4.85;;
28822;SDS011;15961;54.678;9.110;2023-06-26T01:05:42;8.40;;;5.93;;
28822;SDS011;15961;54.678;9.110;2023-06-26T01:08:10;7.07;;;4.55;;
28822;SDS011;15961;54.678;9.110;2023-06-26T01:10:36;9.27;;;5.47;;
28822;SDS011;15961;54.678;9.110;2023-06-26T01:13:01;10.27;;;5.75;;
28822;SDS011;15961;54.678;9.110;2023-06-26T01:15:27;8.45;;;5.78;;
28822;SDS011;15961;54.678;9.110;2023-06-26T01:17:52;10.65;;;5.18;;
28822;SDS011;15961;54.678;9.110;2023-06-26T01:20:18;8.95;;;5.20;;
28822;SDS011;15961;54.678;9.110;2023-06-26T01:22:58;8.60;;;5.57;;
28822;SDS011;15961;54.678;9.110;2023-06-26T01:28:15;9.85;;;5.82;;
28822;SDS011;15961;54.678;9.110;2023-06-26T01:30:42;9.25;;;6.13;;
28822;SDS011;15961;54.678;9.110;2023-06-26T01:33:08;10.23;;;6.13;;
28822;SDS011;15961;54.678;9.110;2023-06-26T01:35:34;9.15;;;5.97;;
28822;SDS011;15961;54.678;9.110;2023-06-26T01:40:44;9.68;;;5.97;;
28822;SDS011;15961;54.678;9.110;2023-06-26T01:43:29;10.05;;;6.18;;
28822;SDS011;15961;54.678;9.110;2023-06-26T01:46:01;9.98;;;5.75;;
28822;SDS011;15961;54.678;9.110;2023-06-26T01:48:33;7.88;;;5.10;;
28822;SDS011;15961;54.678;9.110;2023-06-26T01:51:01;8.68;;;5.53;;
28822;SDS011;15961;54.678;9.110;2023-06-26T01:53:30;8.50;;;5.80;;
28822;SDS011;15961;54.678;9.110;2023-06-26T01:56:06;9.98;;;5.85;;
28822;SDS011;15961;54.678;9.110;2023-06-26T01:58:34;11.18;;;6.05;;
28822;SDS011;15961;54.678;9.110;2023-06-26T02:01:00;13.70;;;5.85;;
28822;SDS011;15961;54.678;9.110;2023-06-26T02:03:26;8.43;;;5.40;;
28822;SDS011;15961;54.678;9.110;2023-06-26T02:05:51;9.63;;;5.85;;
28822;SDS011;15961;54.678;9.110;2023-06-26T02:08:16;10.95;;;6.50;;
28822;SDS011;15961;54.678;9.110;2023-06-26T02:10:42;11.10;;;6.82;;
28822;SDS011;15961;54.678;9.110;2023-06-26T02:13:07;8.23;;;6.25;;
28822;SDS011;15961;54.678;9.110;2023-06-26T02:15:33;10.73;;;5.88;;
28822;SDS011;15961;54.678;9.110;2023-06-26T02:17:58;9.10;;;6.18;;
28822;SDS011;15961;54.678;9.110;2023-06-26T02:20:23;8.60;;;5.90;;
28822;SDS011;15961;54.678;9.110;2023-06-26T02:22:49;10.13;;;7.50;;
28822;SDS011;15961;54.678;9.110;2023-06-26T02:25:14;12.00;;;6.90;;
28822;SDS011;15961;54.678;9.110;2023-06-26T02:27:39;9.10;;;6.22;;
28822;SDS011;15961;54.678;9.110;2023-06-26T02:30:05;12.70;;;7.47;;
28822;SDS011;15961;54.678;9.110;2023-06-26T02:32:31;11.43;;;6.00;;
28822;SDS011;15961;54.678;9.110;2023-06-26T02:34:56;11.52;;;7.38;;
28822;SDS011;15961;54.678;9.110;2023-06-26T02:37:22;9.77;;;6.15;;
28822;SDS011;15961;54.678;9.110;2023-06-26T02:39:47;8.82;;;6.00;;
28822;SDS011;15961;54.678;9.110;2023-06-26T02:42:13;10.05;;;7.30;;
28822;SDS011;15961;54.678;9.110;2023-06-26T02:44:39;11.38;;;7.13;;
28822;SDS011;15961;54.678;9.110;2023-06-26T02:47:04;11.35;;;6.82;;
28822;SDS011;15961;54.678;9.110;2023-06-26T02:49:30;10.68;;;6.03;;
28822;SDS011;15961;54.678;9.110;2023-06-26T02:51:55;10.50;;;6.65;;
28822;SDS011;15961;54.678;9.110;2023-06-26T02:54:20;11.75;;;7.38;;
28822;SDS011;15961;54.678;9.110;2023-06-26T02:56:46;9.68;;;7.15;;
28822;SDS011;15961;54.678;9.110;2023-06-26T02:59:11;11.38;;;7.25;;
28822;SDS011;15961;54.678;9.110;2023-06-26T03:01:36;10.07;;;6.68;;
28822;SDS011;15961;54.678;9.110;2023-06-26T03:04:02;8.48;;;5.80;;
28822;SDS011;15961;54.678;9.110;2023-06-26T03:06:27;8.82;;;6.10;;
28822;SDS011;15961;54.678;9.110;2023-06-26T03:08:53;9.88;;;6.47;;
28822;SDS011;15961;54.678;9.110;2023-06-26T03:11:18;10.32;;;8.07;;
28822;SDS011;15961;54.678;9.110;2023-06-26T03:13:43;10.52;;;6.68;;
28822;SDS011;15961;54.678;9.110;2023-06-26T03:16:09;12.52;;;7.20;;
28822;SDS011;15961;54.678;9.110;2023-06-26T03:18:34;8.90;;;5.82;;
28822;SDS011;15961;54.678;9.110;2023-06-26T03:20:59;11.25;;;8.27;;
28822;SDS011;15961;54.678;9.110;2023-06-26T03:23:25;8.82;;;6.05;;
28822;SDS011;15961;54.678;9.110;2023-06-26T03:25:50;8.73;;;6.20;;
28822;SDS011;15961;54.678;9.110;2023-06-26T03:28:16;10.77;;;7.07;;
28822;SDS011;15961;54.678;9.110;2023-06-26T03:30:41;12.23;;;9.10;;
28822;SDS011;15961;54.678;9.110;2023-06-26T03:33:07;10.75;;;6.63;;
28822;SDS011;15961;54.678;9.110;2023-06-26T03:35:32;10.55;;;6.50;;
28822;SDS011;15961;54.678;9.110;2023-06-26T03:37:58;14.35;;;7.57;;
28822;SDS011;15961;54.678;9.110;2023-06-26T03:40:23;13.02;;;8.15;;
28822;SDS011;15961;54.678;9.110;2023-06-26T03:42:49;12.10;;;8.00;;
28822;SDS011;15961;54.678;9.110;2023-06-26T03:45:14;13.23;;;8.20;;
28822;SDS011;15961;54.678;9.110;2023-06-26T03:47:39;11.35;;;6.90;;
28822;SDS011;15961;54.678;9.110;2023-06-26T03:50:05;10.98;;;7.57;;
28822;SDS011;15961;54.678;9.110;2023-06-26T03:52:31;11.30;;;7.35;;
28822;SDS011;15961;54.678;9.110;2023-06-26T03:54:57;12.30;;;8.95;;
28822;SDS011;15961;54.678;9.110;2023-06-26T03:57:22;11.20;;;7.85;;
28822;SDS011;15961;54.678;9.110;2023-06-26T03:59:48;10.55;;;7.43;;
28822;SDS011;15961;54.678;9.110;2023-06-26T04:02:13;11.60;;;7.07;;
28822;SDS011;15961;54.678;9.110;2023-06-26T04:04:39;11.45;;;8.55;;
28822;SDS011;15961;54.678;9.110;2023-06-26T04:07:04;12.00;;;7.80;;
28822;SDS011;15961;54.678;9.110;2023-06-26T04:09:30;14.05;;;8.75;;
28822;SDS011;15961;54.678;9.110;2023-06-26T04:11:55;13.70;;;8.18;;
28822;SDS011;15961;54.678;9.110;2023-06-26T04:14:20;11.75;;;7.93;;
28822;SDS011;15961;54.678;9.110;2023-06-26T04:16:46;13.90;;;8.70;;
28822;SDS011;15961;54.678;9.110;2023-06-26T04:19:11;13.13;;;8.48;;
28822;SDS011;15961;54.678;9.110;2023-06-26T04:21:37;11.68;;;8.70;;
28822;SDS011;15961;54.678;9.110;2023-06-26T04:24:02;11.20;;;8.00;;
28822;SDS011;15961;54.678;9.110;2023-06-26T04:26:27;13.15;;;10.35;;
28822;SDS011;15961;54.678;9.110;2023-06-26T04:28:53;11.48;;;7.95;;
28822;SDS011;15961;54.678;9.110;2023-06-26T04:31:19;12.73;;;8.80;;
28822;SDS011;15961;54.678;9.110;2023-06-26T04:33:44;13.27;;;8.85;;
28822;SDS011;15961;54.678;9.110;2023-06-26T04:36:10;10.63;;;8.07;;
28822;SDS011;15961;54.678;9.110;2023-06-26T04:38:36;13.82;;;9.13;;
28822;SDS011;15961;54.678;9.110;2023-06-26T04:41:01;13.30;;;10.25;;
28822;SDS011;15961;54.678;9.110;2023-06-26T04:43:26;12.55;;;8.52;;
28822;SDS011;15961;54.678;9.110;2023-06-26T04:45:52;12.93;;;8.90;;
28822;SDS011;15961;54.678;9.110;2023-06-26T04:48:17;15.60;;;9.45;;
28822;SDS011;15961;54.678;9.110;2023-06-26T04:50:43;11.13;;;8.18;;
28822;SDS011;15961;54.678;9.110;2023-06-26T04:53:08;13.02;;;8.68;;
28822;SDS011;15961;54.678;9.110;2023-06-26T04:55:34;12.73;;;8.02;;
28822;SDS011;15961;54.678;9.110;2023-06-26T04:58:00;13.18;;;9.32;;
28822;SDS011;15961;54.678;9.110;2023-06-26T05:00:25;11.93;;;8.15;;
28822;SDS011;15961;54.678;9.110;2023-06-26T05:02:51;12.52;;;8.77;;
28822;SDS011;15961;54.678;9.110;2023-06-26T05:05:25;10.77;;;7.80;;
28822;SDS011;15961;54.678;9.110;2023-06-26T05:07:52;12.00;;;8.45;;
28822;SDS011;15961;54.678;9.110;2023-06-26T05:10:18;14.13;;;9.30;;
28822;SDS011;15961;54.678;9.110;2023-06-26T05:12:43;13.05;;;7.97;;
28822;SDS011;15961;54.678;9.110;2023-06-26T05:15:09;11.60;;;8.73;;
28822;SDS011;15961;54.678;9.110;2023-06-26T05:17:34;11.20;;;8.18;;
28822;SDS011;15961;54.678;9.110;2023-06-26T05:20:00;14.73;;;9.00;;
28822;SDS011;15961;54.678;9.110;2023-06-26T05:22:25;10.98;;;8.07;;
28822;SDS011;15961;54.678;9.110;2023-06-26T05:24:51;11.40;;;8.30;;
28822;SDS011;15961;54.678;9.110;2023-06-26T05:27:19;12.02;;;8.27;;
28822;SDS011;15961;54.678;9.110;2023-06-26T05:29:47;11.88;;;8.65;;
28822;SDS011;15961;54.678;9.110;2023-06-26T05:32:13;11.63;;;9.20;;
28822;SDS011;15961;54.678;9.110;2023-06-26T05:34:42;19.13;;;9.65;;
28822;SDS011;15961;54.678;9.110;2023-06-26T05:37:08;13.23;;;9.25;;
28822;SDS011;15961;54.678;9.110;2023-06-26T05:39:34;13.40;;;9.00;;
28822;SDS011;15961;54.678;9.110;2023-06-26T05:41:59;10.38;;;8.20;;
28822;SDS011;15961;54.678;9.110;2023-06-26T05:44:25;13.02;;;9.35;;
28822;SDS011;15961;54.678;9.110;2023-06-26T05:46:50;11.60;;;8.30;;
28822;SDS011;15961;54.678;9.110;2023-06-26T05:49:15;10.40;;;7.82;;
28822;SDS011;15961;54.678;9.110;2023-06-26T05:51:41;11.30;;;7.82;;
28822;SDS011;15961;54.678;9.110;2023-06-26T05:54:06;10.30;;;8.57;;
28822;SDS011;15961;54.678;9.110;2023-06-26T05:56:32;19.77;;;9.02;;
28822;SDS011;15961;54.678;9.110;2023-06-26T05:58:58;12.45;;;8.32;;
28822;SDS011;15961;54.678;9.110;2023-06-26T06:01:23;13.63;;;8.60;;
28822;SDS011;15961;54.678;9.110;2023-06-26T06:03:49;11.15;;;8.48;;
28822;SDS011;15961;54.678;9.110;2023-06-26T06:06:14;12.45;;;8.60;;
28822;SDS011;15961;54.678;9.110;2023-06-26T06:08:40;11.07;;;7.82;;
28822;SDS011;15961;54.678;9.110;2023-06-26T06:11:06;10.68;;;7.75;;
28822;SDS011;15961;54.678;9.110;2023-06-26T06:13:31;12.50;;;7.72;;
28822;SDS011;15961;54.678;9.110;2023-06-26T06:15:57;11.25;;;8.02;;
28822;SDS011;15961;54.678;9.110;2023-06-26T06:18:22;9.55;;;6.80;;
28822;SDS011;15961;54.678;9.110;2023-06-26T06:20:48;10.00;;;6.68;;
28822;SDS011;15961;54.678;9.110;2023-06-26T06:23:13;11.77;;;9.00;;
28822;SDS011;15961;54.678;9.110;2023-06-26T06:25:38;11.30;;;8.05;;
28822;SDS011;15961;54.678;9.110;2023-06-26T06:28:04;11.88;;;8.02;;
28822;SDS011;15961;54.678;9.110;2023-06-26T06:30:30;9.77;;;6.97;;
28822;SDS011;15961;54.678;9.110;2023-06-26T06:32:55;10.45;;;7.47;;
28822;SDS011;15961;54.678;9.110;2023-06-26T06:35:20;11.13;;;7.57;;
28822;SDS011;15961;54.678;9.110;2023-06-26T06:37:46;10.00;;;7.70;;
28822;SDS011;15961;54.678;9.110;2023-06-26T06:40:11;10.43;;;7.18;;
28822;SDS011;15961;54.678;9.110;2023-06-26T06:42:37;11.40;;;8.43;;
28822;SDS011;15961;54.678;9.110;2023-06-26T06:45:03;10.23;;;7.05;;
28822;SDS011;15961;54.678;9.110;2023-06-26T06:47:28;11.00;;;7.22;;
28822;SDS011;15961;54.678;9.110;2023-06-26T06:49:53;11.15;;;7.60;;
28822;SDS011;15961;54.678;9.110;2023-06-26T06:52:19;10.90;;;7.45;;
28822;SDS011;15961;54.678;9.110;2023-06-26T06:54:54;8.57;;;6.70;;
28822;SDS011;15961;54.678;9.110;2023-06-26T06:57:21;8.45;;;6.50;;
28822;SDS011;15961;54.678;9.110;2023-06-26T06:59:46;8.88;;;6.90;;
28822;SDS011;15961;54.678;9.110;2023-06-26T07:02:13;10.05;;;7.18;;
28822;SDS011;15961;54.678;9.110;2023-06-26T07:04:39;12.02;;;7.85;;
28822;SDS011;15961;54.678;9.110;2023-06-26T07:07:04;8.90;;;7.13;;
28822;SDS011;15961;54.678;9.110;2023-06-26T07:09:29;9.18;;;6.95;;
28822;SDS011;15961;54.678;9.110;2023-06-26T07:11:55;11.32;;;6.80;;
28822;SDS011;15961;54.678;9.110;2023-06-26T07:14:20;8.93;;;6.43;;
28822;SDS011;15961;54.678;9.110;2023-06-26T07:16:46;9.02;;;7.97;;
28822;SDS011;15961;54.678;9.110;2023-06-26T07:19:11;11.25;;;7.13;;
28822;SDS011;15961;54.678;9.110;2023-06-26T07:21:36;8.80;;;6.45;;
28822;SDS011;15961;54.678;9.110;2023-06-26T07:24:02;8.80;;;6.78;;
28822;SDS011;15961;54.678;9.110;2023-06-26T07:26:27;9.05;;;6.90;;
28822;SDS011;15961;54.678;9.110;2023-06-26T07:28:52;8.38;;;7.03;;
28822;SDS011;15961;54.678;9.110;2023-06-26T07:31:19;12.70;;;7.18;;
28822;SDS011;15961;54.678;9.110;2023-06-26T07:33:44;9.93;;;6.88;;
28822;SDS011;15961;54.678;9.110;2023-06-26T07:36:10;9.48;;;6.80;;
28822;SDS011;15961;54.678;9.110;2023-06-26T07:38:35;10.98;;;7.22;;
28822;SDS011;15961;54.678;9.110;2023-06-26T07:41:00;10.20;;;6.80;;
28822;SDS011;15961;54.678;9.110;2023-06-26T07:43:26;8.65;;;6.40;;
28822;SDS011;15961;54.678;9.110;2023-06-26T07:45:51;9.75;;;7.40;;
28822;SDS011;15961;54.678;9.110;2023-06-26T07:48:18;9.13;;;6.63;;
28822;SDS011;15961;54.678;9.110;2023-06-26T07:50:43;10.48;;;7.85;;
28822;SDS011;15961;54.678;9.110;2023-06-26T07:53:09;11.32;;;7.78;;
28822;SDS011;15961;54.678;9.110;2023-06-26T07:55:34;11.45;;;9.23;;
28822;SDS011;15961;54.678;9.110;2023-06-26T07:57:59;12.23;;;9.23;;
28822;SDS011;15961;54.678;9.110;2023-06-26T08:00:26;13.60;;;10.02;;
28822;SDS011;15961;54.678;9.110;2023-06-26T08:02:51;15.45;;;10.10;;
28822;SDS011;15961;54.678;9.110;2023-06-26T08:05:17;13.02;;;9.50;;
28822;SDS011;15961;54.678;9.110;2023-06-26T08:07:42;13.75;;;10.55;;
28822;SDS011;15961;54.678;9.110;2023-06-26T08:10:08;17.42;;;11.07;;
28822;SDS011;15961;54.678;9.110;2023-06-26T08:12:33;16.60;;;10.18;;
28822;SDS011;15961;54.678;9.110;2023-06-26T08:14:59;15.13;;;10.05;;
28822;SDS011;15961;54.678;9.110;2023-06-26T08:17:25;16.67;;;11.00;;
28822;SDS011;15961;54.678;9.110;2023-06-26T08:19:51;16.48;;;11.10;;
28822;SDS011;15961;54.678;9.110;2023-06-26T08:22:16;21.17;;;12.45;;
28822;SDS011;15961;54.678;9.110;2023-06-26T08:24:42;21.60;;;11.95;;
28822;SDS011;15961;54.678;9.110;2023-06-26T08:27:08;17.70;;;11.05;;
28822;SDS011;15961;54.678;9.110;2023-06-26T08:29:33;18.15;;;12.15;;
28822;SDS011;15961;54.678;9.110;2023-06-26T08:31:58;21.23;;;13.75;;
28822;SDS011;15961;54.678;9.110;2023-06-26T08:34:24;19.83;;;12.57;;
28822;SDS011;15961;54.678;9.110;2023-06-26T08:36:49;25.10;;;13.48;;
28822;SDS011;15961;54.678;9.110;2023-06-26T08:39:15;19.13;;;14.18;;
28822;SDS011;15961;54.678;9.110;2023-06-26T08:41:40;17.35;;;11.45;;
28822;SDS011;15961;54.678;9.110;2023-06-26T08:44:06;15.02;;;10.80;;
28822;SDS011;15961;54.678;9.110;2023-06-26T08:46:32;19.13;;;10.77;;
28822;SDS011;15961;54.678;9.110;2023-06-26T08:49:01;18.23;;;10.23;;
28822;SDS011;15961;54.678;9.110;2023-06-26T08:51:30;13.77;;;9.43;;
28822;SDS011;15961;54.678;9.110;2023-06-26T08:53:58;18.00;;;10.40;;
28822;SDS011;15961;54.678;9.110;2023-06-26T08:56:26;15.77;;;9.25;;
28822;SDS011;15961;54.678;9.110;2023-06-26T08:58:54;14.63;;;9.40;;
28822;SDS011;15961;54.678;9.110;2023-06-26T09:01:20;15.02;;;8.93;;
28822;SDS011;15961;54.678;9.110;2023-06-26T09:03:46;12.48;;;8.35;;
28822;SDS011;15961;54.678;9.110;2023-06-26T09:06:12;16.58;;;8.27;;
28822;SDS011;15961;54.678;9.110;2023-06-26T09:08:37;14.77;;;8.60;;
28822;SDS011;15961;54.678;9.110;2023-06-26T09:11:03;13.82;;;6.97;;
28822;SDS011;15961;54.678;9.110;2023-06-26T09:13:28;13.35;;;6.55;;
28822;SDS011;15961;54.678;9.110;2023-06-26T09:15:55;15.00;;;6.88;;
28822;SDS011;15961;54.678;9.110;2023-06-26T09:18:20;14.38;;;7.80;;
28822;SDS011;15961;54.678;9.110;2023-06-26T09:20:47;8.68;;;6.05;;
28822;SDS011;15961;54.678;9.110;2023-06-26T09:23:13;10.43;;;5.07;;
28822;SDS011;15961;54.678;9.110;2023-06-26T09:25:39;10.68;;;5.63;;
28822;SDS011;15961;54.678;9.110;2023-06-26T09:28:05;8.68;;;5.30;;
28822;SDS011;15961;54.678;9.110;2023-06-26T09:30:33;8.27;;;5.15;;
28822;SDS011;15961;54.678;9.110;2023-06-26T09:33:12;13.15;;;5.40;;
28822;SDS011;15961;54.678;9.110;2023-06-26T09:35:39;11.80;;;6.03;;
28822;SDS011;15961;54.678;9.110;2023-06-26T09:38:04;12.85;;;6.38;;
28822;SDS011;15961;54.678;9.110;2023-06-26T09:40:30;14.20;;;6.32;;
28822;SDS011;15961;54.678;9.110;2023-06-26T09:43:02;11.23;;;6.43;;
28822;SDS011;15961;54.678;9.110;2023-06-26T09:45:28;11.55;;;7.03;;
28822;SDS011;15961;54.678;9.110;2023-06-26T09:47:53;9.52;;;5.88;;
28822;SDS011;15961;54.678;9.110;2023-06-26T09:50:22;10.43;;;7.70;;
28822;SDS011;15961;54.678;9.110;2023-06-26T09:52:50;12.18;;;6.72;;
28822;SDS011;15961;54.678;9.110;2023-06-26T09:55:16;12.43;;;6.43;;
28822;SDS011;15961;54.678;9.110;2023-06-26T09:57:44;12.55;;;6.47;;
28822;SDS011;15961;54.678;9.110;2023-06-26T10:00:11;11.13;;;6.25;;
28822;SDS011;15961;54.678;9.110;2023-06-26T10:02:37;12.35;;;5.70;;
28822;SDS011;15961;54.678;9.110;2023-06-26T10:05:02;15.43;;;7.93;;
28822;SDS011;15961;54.678;9.110;2023-06-26T10:07:28;14.43;;;6.65;;
28822;SDS011;15961;54.678;9.110;2023-06-26T10:09:53;13.13;;;6.20;;
28822;SDS011;15961;54.678;9.110;2023-06-26T10:14:53;13.05;;;6.63;;
28822;SDS011;15961;54.678;9.110;2023-06-26T10:17:19;10.70;;;6.40;;
28822;SDS011;15961;54.678;9.110;2023-06-26T10:19:46;16.27;;;7.88;;
28822;SDS011;15961;54.678;9.110;2023-06-26T10:22:14;13.10;;;6.60;;
28822;SDS011;15961;54.678;9.110;2023-06-26T10:24:40;13.98;;;7.65;;
28822;SDS011;15961;54.678;9.110;2023-06-26T10:29:45;12.10;;;7.13;;
28822;SDS011;15961;54.678;9.110;2023-06-26T10:32:13;12.63;;;6.90;;
28822;SDS011;15961;54.678;9.110;2023-06-26T10:34:39;12.85;;;7.35;;
28822;SDS011;15961;54.678;9.110;2023-06-26T10:37:04;19.35;;;7.10;;
28822;SDS011;15961;54.678;9.110;2023-06-26T10:39:46;11.55;;;4.13;;
28822;SDS011;15961;54.678;9.110;2023-06-26T10:42:15;13.80;;;4.57;;
28822;SDS011;15961;54.678;9.110;2023-06-26T10:44:41;13.45;;;5.03;;
28822;SDS011;15961;54.678;9.110;2023-06-26T10:47:08;6.88;;;3.10;;
28822;SDS011;15961;54.678;9.110;2023-06-26T10:49:34;11.73;;;2.80;;
28822;SDS011;15961;54.678;9.110;2023-06-26T10:52:01;12.75;;;3.10;;
28822;SDS011;15961;54.678;9.110;2023-06-26T10:54:28;7.82;;;2.95;;
28822;SDS011;15961;54.678;9.110;2023-06-26T10:56:54;6.88;;;2.08;;
28822;SDS011;15961;54.678;9.110;2023-06-26T10:59:24;8.90;;;2.33;;
28822;SDS011;15961;54.678;9.110;2023-06-26T11:01:54;9.57;;;2.70;;
28822;SDS011;15961;54.678;9.110;2023-06-26T11:04:35;13.10;;;2.72;;
28822;SDS011;15961;54.678;9.110;2023-06-26T11:07:14;6.25;;;2.13;;
28822;SDS011;15961;54.678;9.110;2023-06-26T11:09:56;4.70;;;2.20;;
28822;SDS011;15961;54.678;9.110;2023-06-26T11:15:01;9.88;;;2.60;;
28822;SDS011;15961;54.678;9.110;2023-06-26T11:17:27;9.30;;;2.55;;
28822;SDS011;15961;54.678;9.110;2023-06-26T11:19:53;11.27;;;2.78;;
28822;SDS011;15961;54.678;9.110;2023-06-26T11:22:20;8.23;;;2.67;;
28822;SDS011;15961;54.678;9.110;2023-06-26T11:24:45;14.27;;;2.72;;
28822;SDS011;15961;54.678;9.110;2023-06-26T11:27:11;13.15;;;3.13;;
28822;SDS011;15961;54.678;9.110;2023-06-26T11:29:36;8.23;;;3.00;;
28822;SDS011;15961;54.678;9.110;2023-06-26T11:32:03;8.60;;;2.90;;
28822;SDS011;15961;54.678;9.110;2023-06-26T11:34:30;13.10;;;3.00;;
28822;SDS011;15961;54.678;9.110;2023-06-26T11:36:56;15.82;;;2.55;;
28822;SDS011;15961;54.678;9.110;2023-06-26T11:39:22;8.57;;;2.90;;
28822;SDS011;15961;54.678;9.110;2023-06-26T11:41:47;6.75;;;2.42;;
28822;SDS011;15961;54.678;9.110;2023-06-26T11:44:12;8.68;;;2.30;;
28822;SDS011;15961;54.678;9.110;2023-06-26T11:46:40;10.85;;;2.90;;
28822;SDS011;15961;54.678;9.110;2023-06-26T11:49:06;11.98;;;3.42;;
28822;SDS011;15961;54.678;9.110;2023-06-26T11:51:31;7.03;;;3.53;;
28822;SDS011;15961;54.678;9.110;2023-06-26T11:54:00;8.65;;;2.45;;
28822;SDS011;15961;54.678;9.110;2023-06-26T11:56:27;8.30;;;2.53;;
28822;SDS011;15961;54.678;9.110;2023-06-26T12:04:07;6.97;;;2.15;;
28822;SDS011;15961;54.678;9.110;2023-06-26T12:06:34;6.13;;;2.17;;
28822;SDS011;15961;54.678;9.110;2023-06-26T12:09:02;8.73;;;2.30;;
28822;SDS011;15961;54.678;9.110;2023-06-26T12:11:30;7.80;;;2.65;;
28822;SDS011;15961;54.678;9.110;2023-06-26T12:13:55;5.45;;;2.38;;
28822;SDS011;15961;54.678;9.110;2023-06-26T12:16:21;8.90;;;1.92;;
28822;SDS011;15961;54.678;9.110;2023-06-26T12:18:47;5.95;;;2.22;;
28822;SDS011;15961;54.678;9.110;2023-06-26T12:24:02;4.53;;;1.85;;
28822;SDS011;15961;54.678;9.110;2023-06-26T12:26:28;4.85;;;1.60;;
28822;SDS011;15961;54.678;9.110;2023-06-26T12:29:04;4.13;;;1.63;;
28822;SDS011;15961;54.678;9.110;2023-06-26T12:31:30;4.47;;;1.80;;
28822;SDS011;15961;54.678;9.110;2023-06-26T12:33:56;4.18;;;1.60;;
28822;SDS011;15961;54.678;9.110;2023-06-26T12:36:21;7.70;;;2.30;;
28822;SDS011;15961;54.678;9.110;2023-06-26T12:38:48;6.55;;;2.10;;
28822;SDS011;15961;54.678;9.110;2023-06-26T12:41:13;5.05;;;1.60;;
28822;SDS011;15961;54.678;9.110;2023-06-26T12:43:42;4.63;;;1.80;;
28822;SDS011;15961;54.678;9.110;2023-06-26T12:46:08;5.53;;;1.90;;
28822;SDS011;15961;54.678;9.110;2023-06-26T12:48:40;4.38;;;1.65;;
28822;SDS011;15961;54.678;9.110;2023-06-26T12:51:15;3.75;;;1.65;;
28822;SDS011;15961;54.678;9.110;2023-06-26T12:53:41;5.55;;;2.00;;
28822;SDS011;15961;54.678;9.110;2023-06-26T12:56:07;5.82;;;3.45;;
28822;SDS011;15961;54.678;9.110;2023-06-26T12:58:36;3.97;;;1.70;;
28822;SDS011;15961;54.678;9.110;2023-06-26T13:01:05;5.20;;;1.92;;
28822;SDS011;15961;54.678;9.110;2023-06-26T13:03:39;5.30;;;1.90;;
28822;SDS011;15961;54.678;9.110;2023-06-26T13:06:05;5.93;;;1.80;;
28822;SDS011;15961;54.678;9.110;2023-06-26T13:08:30;5.30;;;1.65;;
28822;SDS011;15961;54.678;9.110;2023-06-26T13:10:56;5.88;;;2.00;;
28822;SDS011;15961;54.678;9.110;2023-06-26T13:13:21;5.35;;;1.80;;
28822;SDS011;15961;54.678;9.110;2023-06-26T13:15:47;4.78;;;1.50;;
28822;SDS011;15961;54.678;9.110;2023-06-26T13:18:12;6.03;;;1.58;;
28822;SDS011;15961;54.678;9.110;2023-06-26T13:20:37;6.40;;;2.47;;
28822;SDS011;15961;54.678;9.110;2023-06-26T13:23:03;5.72;;;1.80;;
28822;SDS011;15961;54.678;9.110;2023-06-26T13:25:28;4.07;;;2.20;;
28822;SDS011;15961;54.678;9.110;2023-06-26T13:27:54;5.40;;;1.65;;
28822;SDS011;15961;54.678;9.110;2023-06-26T13:30:19;5.88;;;1.55;;
28822;SDS011;15961;54.678;9.110;2023-06-26T13:32:44;5.00;;;1.83;;
28822;SDS011;15961;54.678;9.110;2023-06-26T13:35:11;4.22;;;2.33;;
28822;SDS011;15961;54.678;9.110;2023-06-26T13:37:36;3.95;;;2.08;;
28822;SDS011;15961;54.678;9.110;2023-06-26T13:40:02;4.68;;;1.90;;
28822;SDS011;15961;54.678;9.110;2023-06-26T13:42:28;6.22;;;2.03;;
28822;SDS011;15961;54.678;9.110;2023-06-26T13:44:53;4.45;;;1.70;;
28822;SDS011;15961;54.678;9.110;2023-06-26T13:47:19;3.97;;;1.85;;
28822;SDS011;15961;54.678;9.110;2023-06-26T13:49:44;8.82;;;1.90;;
28822;SDS011;15961;54.678;9.110;2023-06-26T13:52:09;6.80;;;2.20;;
28822;SDS011;15961;54.678;9.110;2023-06-26T13:54:35;10.50;;;2.00;;
28822;SDS011;15961;54.678;9.110;2023-06-26T13:57:01;6.53;;;2.20;;
28822;SDS011;15961;54.678;9.110;2023-06-26T13:59:27;4.30;;;1.85;;
28822;SDS011;15961;54.678;9.110;2023-06-26T14:01:53;5.07;;;1.83;;
28822;SDS011;15961;54.678;9.110;2023-06-26T14:04:19;7.50;;;1.77;;
28822;SDS011;15961;54.678;9.110;2023-06-26T14:06:44;4.50;;;1.70;;
28822;SDS011;15961;54.678;9.110;2023-06-26T14:09:10;6.63;;;1.92;;
28822;SDS011;15961;54.678;9.110;2023-06-26T14:11:36;7.10;;;2.13;;
28822;SDS011;15961;54.678;9.110;2023-06-26T14:14:01;4.28;;;2.08;;
28822;SDS011;15961;54.678;9.110;2023-06-26T14:16:26;2.88;;;1.73;;
28822;SDS011;15961;54.678;9.110;2023-06-26T14:18:53;7.20;;;2.85;;
28822;SDS011;15961;54.678;9.110;2023-06-26T14:21:19;6.85;;;1.90;;
28822;SDS011;15961;54.678;9.110;2023-06-26T14:23:44;7.13;;;2.38;;
28822;SDS011;15961;54.678;9.110;2023-06-26T14:26:10;8.20;;;2.25;;
28822;SDS011;15961;54.678;9.110;2023-06-26T14:28:36;7.63;;;2.53;;
28822;SDS011;15961;54.678;9.110;2023-06-26T14:31:01;5.25;;;2.08;;
28822;SDS011;15961;54.678;9.110;2023-06-26T14:33:26;5.80;;;2.00;;
28822;SDS011;15961;54.678;9.110;2023-06-26T14:35:52;4.45;;;2.28;;
28822;SDS011;15961;54.678;9.110;2023-06-26T14:38:17;5.30;;;2.53;;
28822;SDS011;15961;54.678;9.110;2023-06-26T14:40:42;6.65;;;2.13;;
28822;SDS011;15961;54.678;9.110;2023-06-26T14:43:08;5.50;;;2.72;;
28822;SDS011;15961;54.678;9.110;2023-06-26T14:45:33;5.80;;;2.30;;
28822;SDS011;15961;54.678;9.110;2023-06-26T14:47:58;6.10;;;2.83;;
28822;SDS011;15961;54.678;9.110;2023-06-26T14:50:24;8.30;;;2.13;;
28822;SDS011;15961;54.678;9.110;2023-06-26T14:52:49;5.57;;;2.60;;
28822;SDS011;15961;54.678;9.110;2023-06-26T14:55:15;6.13;;;2.40;;